createdAt,value
2018-05-04T00:02:41.541Z,1.70
2018-05-04T00:07:45.568Z,2.73
2018-05-04T00:12:48.832Z,3.03
2018-05-04T00:17:52.100Z,2.63
2018-05-04T00:22:55.425Z,2.80
2018-05-04T00:27:58.703Z,2.07
2018-05-04T00:33:02.732Z,1.83
2018-05-04T00:38:06.008Z,2.40
2018-05-04T00:43:09.262Z,1.90
2018-05-04T00:48:12.527Z,3.50
2018-05-04T00:53:15.811Z,3.83
2018-05-04T00:58:19.070Z,3.83
2018-05-04T01:03:22.326Z,4.03
2018-05-04T01:08:25.612Z,4.47
2018-05-04T01:13:28.883Z,5.10
2018-05-04T01:18:32.931Z,4.40
2018-05-04T01:23:36.311Z,4.30
2018-05-04T01:28:40.335Z,4.73
2018-05-04T01:33:43.626Z,4.60
2018-05-04T01:38:46.887Z,4.30
2018-05-04T01:43:50.175Z,4.73
2018-05-04T01:48:54.200Z,4.37
2018-05-04T01:53:58.226Z,4.97
2018-05-04T01:59:02.255Z,5.47
2018-05-04T02:04:05.523Z,5.27
2018-05-04T02:09:08.771Z,4.50
2018-05-04T02:14:12.052Z,5.07
2018-05-04T02:19:15.320Z,5.87
2018-05-04T02:24:18.622Z,5.33
2018-05-04T02:29:21.880Z,4.33
2018-05-04T02:34:25.154Z,6.17
2018-05-04T02:39:28.415Z,4.97
2018-05-04T02:44:32.454Z,6.73
2018-05-04T02:49:35.701Z,5.47
2018-05-04T02:54:38.960Z,5.83
2018-05-04T02:59:43.000Z,5.43
2018-05-04T03:04:47.011Z,6.20
2018-05-04T03:09:51.034Z,4.30
2018-05-04T03:14:54.294Z,5.20
2018-05-04T03:19:57.552Z,7.97
2018-05-04T03:25:00.823Z,5.70
2018-05-04T03:30:04.084Z,5.63
2018-05-04T03:35:07.340Z,6.37
2018-05-04T03:40:10.611Z,6.47
2018-05-04T03:45:13.871Z,7.57
2018-05-04T03:50:19.885Z,7.17
2018-05-04T03:55:23.151Z,7.10
2018-05-04T04:00:38.216Z,5.70
2018-05-04T04:05:42.117Z,5.37
2018-05-04T04:10:45.375Z,4.00
2018-05-04T04:15:48.651Z,7.97
2018-05-04T04:20:51.920Z,7.40
2018-05-04T04:25:55.218Z,5.80
2018-05-04T04:30:58.471Z,4.63
2018-05-04T04:36:01.731Z,7.87
2018-05-04T04:41:06.168Z,5.90
2018-05-04T04:46:09.436Z,6.50
2018-05-04T04:51:12.688Z,6.30
2018-05-04T04:56:16.711Z,6.90
2018-05-04T05:01:19.978Z,6.20
2018-05-04T05:06:23.262Z,8.93
2018-05-04T05:11:26.515Z,7.90
2018-05-04T05:16:29.795Z,7.27
2018-05-04T05:21:33.052Z,7.50
2018-05-04T05:26:36.311Z,6.17
2018-05-04T05:31:39.572Z,5.43
2018-05-04T05:36:42.847Z,8.47
2018-05-04T05:41:46.115Z,9.70
2018-05-04T05:46:49.400Z,9.40
2018-05-04T05:51:52.829Z,9.20
2018-05-04T05:56:56.771Z,7.20
2018-05-04T06:02:00.032Z,7.03
2018-05-04T06:07:04.073Z,8.00
2018-05-04T06:12:08.091Z,10.90
2018-05-04T06:17:11.371Z,7.90
2018-05-04T06:22:14.625Z,6.83
2018-05-04T06:27:17.920Z,7.77
2018-05-04T06:32:21.943Z,6.83
2018-05-04T06:37:25.967Z,6.23
2018-05-04T06:42:29.233Z,8.80
2018-05-04T06:47:32.516Z,8.93
2018-05-04T06:52:35.767Z,8.07
2018-05-04T06:57:39.051Z,4.80
2018-05-04T07:02:43.079Z,9.17
2018-05-04T07:07:46.348Z,3.93
2018-05-04T07:12:49.602Z,5.87
2018-05-04T07:17:52.883Z,7.33
2018-05-04T07:22:56.174Z,6.23
2018-05-04T07:27:59.551Z,7.00
2018-05-04T07:33:02.866Z,4.43
2018-05-04T07:38:09.646Z,5.37
2018-05-04T07:43:13.853Z,5.23
2018-05-04T07:48:18.526Z,7.00
2018-05-04T07:53:21.958Z,6.20
2018-05-04T07:58:25.231Z,5.83
2018-05-04T08:03:28.504Z,5.83
2018-05-04T08:08:31.872Z,3.30
2018-05-04T08:13:35.054Z,4.20
2018-05-04T08:18:38.323Z,4.43
2018-05-04T08:23:41.597Z,4.80
2018-05-04T08:28:44.911Z,5.00
2018-05-04T08:33:51.746Z,3.83
2018-05-04T08:38:55.546Z,5.67
2018-05-04T08:43:58.800Z,4.87
2018-05-04T08:49:02.044Z,2.70
2018-05-04T08:54:05.295Z,3.40
2018-05-04T08:59:08.538Z,6.20
2018-05-04T09:04:12.571Z,5.63
2018-05-04T09:09:16.591Z,3.93
2018-05-04T09:14:20.623Z,4.07
2018-05-04T09:19:23.867Z,3.90
2018-05-04T09:24:27.123Z,5.20
2018-05-04T09:29:31.232Z,4.10
2018-05-04T09:34:34.509Z,3.07
2018-05-04T09:39:38.566Z,3.00
2018-05-04T09:44:41.801Z,2.90
2018-05-04T09:49:45.824Z,2.47
2018-05-04T09:54:49.116Z,2.53
2018-05-04T09:59:52.375Z,3.33
2018-05-04T10:04:55.630Z,3.00
2018-05-04T10:09:58.908Z,3.80
2018-05-04T10:15:02.210Z,2.40
2018-05-04T10:20:05.455Z,3.70
2018-05-04T10:25:08.996Z,2.97
2018-05-04T10:30:12.750Z,3.07
2018-05-04T10:35:16.071Z,2.83
2018-05-04T10:40:19.396Z,2.77
2018-05-04T10:45:23.160Z,4.07
2018-05-04T10:50:27.205Z,3.67
2018-05-04T10:55:31.035Z,4.40
2018-05-04T11:00:35.036Z,4.10
2018-05-04T11:05:38.291Z,3.73
2018-05-04T11:10:41.531Z,4.47
2018-05-04T11:15:44.822Z,2.93
2018-05-04T11:20:48.069Z,3.23
2018-05-04T11:25:51.312Z,3.30
2018-05-04T11:30:54.621Z,3.10
2018-05-04T11:35:58.610Z,4.03
2018-05-04T11:41:01.918Z,3.30
2018-05-04T11:46:05.182Z,4.30
2018-05-04T11:51:08.467Z,3.10
2018-05-04T11:56:11.715Z,4.87
2018-05-04T12:01:15.000Z,2.90
2018-05-04T12:06:18.249Z,3.00
2018-05-04T12:11:22.268Z,5.33
2018-05-04T12:16:25.517Z,4.50
2018-05-04T12:21:28.787Z,2.80
2018-05-04T12:26:32.045Z,3.00
2018-05-04T12:31:35.343Z,3.90
2018-05-04T12:36:39.406Z,2.57
2018-05-04T12:41:42.647Z,3.27
2018-05-04T12:46:45.902Z,2.80
2018-05-04T12:51:49.152Z,3.40
2018-05-04T12:56:52.435Z,3.00
2018-05-04T13:01:55.699Z,4.83
2018-05-04T13:06:58.971Z,3.87
2018-05-04T13:12:02.223Z,3.10
2018-05-04T13:17:05.479Z,4.97
2018-05-04T13:22:08.809Z,2.47
2018-05-04T13:27:12.068Z,3.70
2018-05-04T13:32:15.339Z,4.63
2018-05-04T13:37:18.620Z,2.57
2018-05-04T13:42:21.884Z,2.87
2018-05-04T13:47:25.991Z,3.90
2018-05-04T13:52:30.179Z,2.10
2018-05-04T13:57:33.457Z,4.13
2018-05-04T14:02:37.156Z,3.40
2018-05-04T14:07:40.423Z,2.00
2018-05-04T14:12:43.768Z,4.47
2018-05-04T14:17:47.775Z,2.60
2018-05-04T14:22:51.052Z,2.70
2018-05-04T14:27:54.316Z,2.30
2018-05-04T14:32:57.596Z,2.20
2018-05-04T14:38:00.848Z,3.37
2018-05-04T14:43:04.735Z,4.23
2018-05-04T14:48:08.741Z,3.93
2018-05-04T14:53:12.016Z,3.10
2018-05-04T14:58:15.875Z,2.17
2018-05-04T15:03:19.724Z,4.80
2018-05-04T15:08:22.996Z,4.73
2018-05-04T15:13:26.275Z,3.30
2018-05-04T15:18:29.523Z,4.40
2018-05-04T15:23:33.772Z,4.67
2018-05-04T15:28:37.797Z,4.47
2018-05-04T15:33:41.062Z,5.00
2018-05-04T15:38:44.312Z,4.83
2018-05-04T15:43:48.436Z,5.07
2018-05-04T15:48:58.213Z,5.60
2018-05-04T15:54:01.488Z,4.80
2018-05-04T15:59:04.733Z,4.23
2018-05-04T16:04:07.999Z,4.57
2018-05-04T16:09:12.011Z,2.50
2018-05-04T16:14:15.272Z,5.40
2018-05-04T16:19:18.536Z,2.37
2018-05-04T16:24:21.809Z,4.43
2018-05-04T16:29:25.097Z,4.93
2018-05-04T16:34:28.388Z,3.07
2018-05-04T16:39:31.680Z,4.90
2018-05-04T16:44:34.952Z,3.47
2018-05-04T16:49:38.249Z,4.13
2018-05-04T16:54:41.500Z,2.57
2018-05-04T16:59:44.836Z,3.63
2018-05-04T17:04:48.973Z,4.53
2018-05-04T17:09:52.283Z,5.30
2018-05-04T17:14:55.559Z,5.37
2018-05-04T17:19:58.915Z,3.40
2018-05-04T17:25:02.185Z,5.37
2018-05-04T17:30:05.459Z,3.77
2018-05-04T17:35:08.731Z,5.83
2018-05-04T17:40:12.058Z,4.73
2018-05-04T17:45:15.259Z,4.43
2018-05-04T17:50:18.522Z,3.37
2018-05-04T17:55:21.791Z,4.17
2018-05-04T18:00:25.058Z,5.57
2018-05-04T18:05:28.318Z,4.87
2018-05-04T18:10:31.594Z,4.20
2018-05-04T18:15:34.844Z,4.37
2018-05-04T18:20:39.008Z,5.17
2018-05-04T18:25:43.025Z,3.50
2018-05-04T18:30:46.284Z,3.83
2018-05-04T18:35:49.678Z,5.20
2018-05-04T18:40:52.952Z,3.33
2018-05-04T18:45:56.205Z,4.82
2018-05-04T18:50:59.474Z,4.27
2018-05-04T18:56:03.495Z,5.13
2018-05-04T19:01:06.755Z,4.27
2018-05-04T19:06:10.032Z,4.53
2018-05-04T19:11:13.375Z,3.77
2018-05-04T19:16:16.632Z,4.07
2018-05-04T19:21:21.865Z,2.60
2018-05-04T19:26:25.111Z,2.80
2018-05-04T19:31:28.435Z,4.17
2018-05-04T19:36:32.756Z,3.53
2018-05-04T19:41:36.009Z,3.43
2018-05-04T19:46:39.371Z,3.90
2018-05-04T19:51:42.652Z,2.60
2018-05-04T19:56:45.956Z,2.87
2018-05-04T20:01:49.211Z,2.40
2018-05-04T20:06:52.484Z,3.33
2018-05-04T20:11:55.728Z,2.57
2018-05-04T20:16:58.999Z,2.30
2018-05-04T20:22:03.032Z,2.63
2018-05-04T20:27:07.089Z,2.40
2018-05-04T20:32:10.363Z,2.90
2018-05-04T20:37:14.616Z,5.03
2018-05-04T20:42:18.028Z,6.13
2018-05-04T20:47:21.323Z,5.83
2018-05-04T20:52:25.340Z,4.10
2018-05-04T20:57:28.614Z,4.30
2018-05-04T21:02:31.911Z,3.40
2018-05-04T21:07:35.246Z,3.30
2018-05-04T21:12:38.515Z,4.07
2018-05-04T21:17:41.784Z,3.60
2018-05-04T21:22:45.801Z,3.87
2018-05-04T21:27:49.067Z,4.10
2018-05-04T21:32:54.175Z,4.47
2018-05-04T21:37:57.487Z,4.43
2018-05-04T21:43:02.995Z,4.83
2018-05-04T21:48:07.024Z,4.97
2018-05-04T21:53:11.851Z,4.93
2018-05-04T21:58:15.916Z,3.90
2018-05-04T22:03:19.244Z,4.63
2018-05-04T22:08:22.502Z,4.30
2018-05-04T22:13:26.843Z,4.47
2018-05-04T22:18:30.104Z,4.57
2018-05-04T22:23:34.204Z,3.50
2018-05-04T22:28:37.495Z,5.90
2018-05-04T22:33:40.768Z,5.73
2018-05-04T22:38:44.060Z,4.67
2018-05-04T22:43:47.351Z,4.77
2018-05-04T22:48:50.713Z,3.63
2018-05-04T22:53:53.980Z,8.17
2018-05-04T22:58:58.020Z,6.77
2018-05-04T23:04:01.341Z,5.87
2018-05-04T23:09:04.687Z,5.47
2018-05-04T23:14:07.954Z,4.80
2018-05-04T23:19:11.248Z,7.17
2018-05-04T23:24:15.299Z,5.90
2018-05-04T23:29:18.567Z,6.03
2018-05-04T23:34:21.828Z,5.27
2018-05-04T23:39:25.191Z,5.20
2018-05-04T23:44:28.511Z,3.70
2018-05-04T23:49:31.813Z,8.53
2018-05-04T23:54:35.114Z,5.07
2018-05-04T23:59:38.833Z,7.17
